createdAt,value
2019-05-06T00:01:36.133Z,3.67
2019-05-06T00:04:05.291Z,4.03
2019-05-06T00:06:34.871Z,4.97
2019-05-06T00:09:05.598Z,4.40
2019-05-06T00:11:34.902Z,4.30
2019-05-06T00:14:04.253Z,4.43
2019-05-06T00:16:34.652Z,4.23
2019-05-06T00:19:04.986Z,4.83
2019-05-06T00:21:35.561Z,4.93
2019-05-06T00:24:05.119Z,4.53
2019-05-06T00:26:57.241Z,6.33
2019-05-06T00:29:29.024Z,5.73
2019-05-06T00:31:58.163Z,5.57
2019-05-06T00:34:27.312Z,4.63
2019-05-06T00:36:56.538Z,4.67
2019-05-06T00:39:38.642Z,5.47
2019-05-06T00:42:42.035Z,5.60
2019-05-06T00:45:13.551Z,5.67
2019-05-06T00:47:44.339Z,5.20
2019-05-06T00:50:14.338Z,5.17
2019-05-06T00:52:44.746Z,4.93
2019-05-06T00:55:13.893Z,5.00
2019-05-06T00:57:45.925Z,4.20
2019-05-06T01:00:24.260Z,6.27
2019-05-06T01:02:54.251Z,4.63
2019-05-06T01:05:24.438Z,4.30
2019-05-06T01:07:54.979Z,4.50
2019-05-06T01:10:24.529Z,5.40
2019-05-06T01:13:24.058Z,4.40
2019-05-06T01:15:54.674Z,5.03
2019-05-06T01:18:24.505Z,4.43
2019-05-06T01:21:09.909Z,4.97
2019-05-06T01:23:41.242Z,4.70
2019-05-06T01:26:10.622Z,4.20
2019-05-06T01:28:39.914Z,4.10
2019-05-06T01:31:09.053Z,4.07
2019-05-06T01:33:38.239Z,4.90
2019-05-06T01:36:07.466Z,4.57
2019-05-06T01:38:44.376Z,4.87
2019-05-06T01:41:24.361Z,4.53
2019-05-06T01:43:54.598Z,4.63
2019-05-06T01:46:24.538Z,4.80
2019-05-06T01:48:53.785Z,4.27
2019-05-06T01:51:24.147Z,4.43
2019-05-06T01:53:54.380Z,4.70
2019-05-06T01:56:24.166Z,4.70
2019-05-06T01:58:53.734Z,4.47
2019-05-06T02:01:24.875Z,4.40
2019-05-06T02:03:53.954Z,4.40
2019-05-06T02:06:24.983Z,5.00
2019-05-06T02:08:54.288Z,5.03
2019-05-06T02:11:24.109Z,5.83
2019-05-06T02:13:53.860Z,6.20
2019-05-06T02:16:24.086Z,6.10
2019-05-06T02:18:54.080Z,5.07
2019-05-06T02:21:41.094Z,6.13
2019-05-06T02:24:14.837Z,6.03
2019-05-06T02:26:44.105Z,5.97
2019-05-06T02:29:15.795Z,6.40
2019-05-06T02:32:17.364Z,7.10
2019-05-06T02:34:47.523Z,6.80
2019-05-06T02:37:25.162Z,6.33
2019-05-06T02:39:53.514Z,6.77
2019-05-06T02:42:23.869Z,7.67
2019-05-06T02:44:54.359Z,7.00
2019-05-06T02:47:45.632Z,7.03
2019-05-06T02:50:17.394Z,7.03
2019-05-06T02:52:46.653Z,6.70
2019-05-06T02:55:15.859Z,7.43
2019-05-06T02:57:45.004Z,7.37
2019-05-06T03:00:16.414Z,7.60
2019-05-06T03:02:48.203Z,7.47
2019-05-06T03:05:16.588Z,7.43
2019-05-06T03:07:45.792Z,6.97
2019-05-06T03:10:16.285Z,8.37
2019-05-06T03:12:45.418Z,8.67
2019-05-06T03:15:16.717Z,7.83
2019-05-06T03:17:46.200Z,7.53
2019-05-06T03:20:26.006Z,9.03
2019-05-06T03:23:04.017Z,6.90
2019-05-06T03:25:35.235Z,8.03
2019-05-06T03:28:06.437Z,7.83
2019-05-06T03:30:36.607Z,7.40
2019-05-06T03:33:44.622Z,7.27
2019-05-06T03:35:56.104Z,6.40
2019-05-06T03:38:07.979Z,6.93
2019-05-06T03:40:41.675Z,6.57
2019-05-06T03:43:07.979Z,5.70
2019-05-06T03:45:46.997Z,5.90
2019-05-06T03:48:23.789Z,6.57
2019-05-06T03:50:55.594Z,5.93
2019-05-06T03:53:24.063Z,6.30
2019-05-06T03:55:54.305Z,6.20
2019-05-06T03:58:26.887Z,7.57
2019-05-06T04:00:58.629Z,7.13
2019-05-06T04:03:42.677Z,6.97
2019-05-06T04:05:58.876Z,8.07
2019-05-06T04:08:28.652Z,7.40
2019-05-06T04:10:57.896Z,8.50
2019-05-06T04:13:27.232Z,8.57
2019-05-06T04:16:23.116Z,8.20
2019-05-06T04:19:00.216Z,9.13
2019-05-06T04:21:43.673Z,9.10
2019-05-06T04:24:22.879Z,7.60
2019-05-06T04:27:04.590Z,8.43
2019-05-06T04:29:35.588Z,7.10
2019-05-06T04:32:05.364Z,7.67
2019-05-06T04:34:34.964Z,7.47
2019-05-06T04:37:04.112Z,7.83
2019-05-06T04:39:33.342Z,8.23
2019-05-06T04:42:03.520Z,7.20
2019-05-06T04:44:33.186Z,7.03
2019-05-06T04:47:05.267Z,7.60
2019-05-06T04:49:34.148Z,7.17
2019-05-06T04:52:03.764Z,7.60
2019-05-06T04:54:33.627Z,7.57
2019-05-06T04:57:05.055Z,7.20
2019-05-06T04:59:43.270Z,9.10
2019-05-06T05:02:15.031Z,9.57
2019-05-06T05:04:44.375Z,9.53
2019-05-06T05:07:13.783Z,10.67
2019-05-06T05:09:43.363Z,9.50
2019-05-06T05:12:22.675Z,11.57
2019-05-06T05:14:58.387Z,11.67
2019-05-06T05:17:38.239Z,10.13
2019-05-06T05:20:08.011Z,10.07
2019-05-06T05:22:37.192Z,12.17
2019-05-06T05:25:06.675Z,9.67
2019-05-06T05:27:35.909Z,10.10
2019-05-06T05:30:05.735Z,11.87
2019-05-06T05:32:34.982Z,10.00
2019-05-06T05:35:04.487Z,11.10
2019-05-06T05:37:33.756Z,10.93
2019-05-06T05:40:03.265Z,9.50
2019-05-06T05:42:39.661Z,10.03
2019-05-06T05:45:09.430Z,9.87
2019-05-06T05:47:38.824Z,10.47
2019-05-06T05:50:14.483Z,9.90
2019-05-06T05:52:43.689Z,10.13
2019-05-06T05:55:13.411Z,9.53
2019-05-06T05:57:43.300Z,9.50
2019-05-06T06:00:13.834Z,10.53
2019-05-06T06:02:43.830Z,11.17
2019-05-06T06:05:13.136Z,10.23
2019-05-06T06:07:42.647Z,10.27
2019-05-06T06:10:22.566Z,9.97
2019-05-06T06:12:52.913Z,9.80
2019-05-06T06:15:44.101Z,9.17
2019-05-06T06:18:22.417Z,9.43
2019-05-06T06:21:18.737Z,10.23
2019-05-06T06:23:42.969Z,11.03
2019-05-06T06:26:12.255Z,10.83
2019-05-06T06:28:42.585Z,10.00
2019-05-06T06:31:26.104Z,9.23
2019-05-06T06:34:01.924Z,8.50
2019-05-06T06:36:38.174Z,9.53
2019-05-06T06:39:20.222Z,12.13
2019-05-06T06:41:49.482Z,10.03
2019-05-06T06:44:22.179Z,7.70
2019-05-06T06:46:52.463Z,8.07
2019-05-06T06:49:22.274Z,7.63
2019-05-06T06:51:53.166Z,7.63
2019-05-06T06:54:22.911Z,7.77
2019-05-06T06:57:12.705Z,6.63
2019-05-06T06:59:48.300Z,7.27
2019-05-06T07:02:37.027Z,6.73
2019-05-06T07:05:27.626Z,7.43
2019-05-06T07:07:48.073Z,6.17
2019-05-06T07:10:35.100Z,5.80
2019-05-06T07:13:04.402Z,6.40
2019-05-06T07:15:33.879Z,4.93
2019-05-06T07:18:03.208Z,4.97
2019-05-06T07:20:36.521Z,5.83
2019-05-06T07:23:24.515Z,8.60
2019-05-06T07:25:54.579Z,6.00
2019-05-06T07:28:24.552Z,6.23
2019-05-06T07:30:54.301Z,6.33
2019-05-06T07:33:25.864Z,6.40
2019-05-06T07:35:55.061Z,5.67
2019-05-06T07:38:24.217Z,5.60
2019-05-06T07:41:04.177Z,5.17
2019-05-06T07:43:38.507Z,5.07
2019-05-06T07:46:16.004Z,5.63
2019-05-06T07:48:45.200Z,5.60
2019-05-06T07:51:14.513Z,6.77
2019-05-06T07:53:43.900Z,5.87
2019-05-06T07:56:13.148Z,5.57
2019-05-06T07:58:43.314Z,6.53
2019-05-06T08:01:13.623Z,6.53
2019-05-06T08:03:43.184Z,7.03
2019-05-06T08:06:13.189Z,6.67
2019-05-06T08:08:43.458Z,6.43
2019-05-06T08:11:12.810Z,6.27
2019-05-06T08:13:43.530Z,6.97
2019-05-06T08:16:13.299Z,6.07
2019-05-06T08:18:42.782Z,6.53
2019-05-06T08:21:22.341Z,6.47
2019-05-06T08:23:52.429Z,6.47
2019-05-06T08:26:22.490Z,7.07
2019-05-06T08:28:52.619Z,6.43
2019-05-06T08:31:22.984Z,6.03
2019-05-06T08:33:52.636Z,7.00
2019-05-06T08:36:43.191Z,6.03
2019-05-06T08:39:13.112Z,5.53
2019-05-06T08:41:43.337Z,5.23
2019-05-06T08:44:12.832Z,5.70
2019-05-06T08:46:43.336Z,5.80
2019-05-06T08:49:12.836Z,5.87
2019-05-06T08:51:53.069Z,6.20
2019-05-06T08:54:36.564Z,7.70
2019-05-06T08:57:05.742Z,8.07
2019-05-06T08:59:35.006Z,8.23
2019-05-06T09:02:04.863Z,9.07
2019-05-06T09:04:34.016Z,9.07
2019-05-06T09:07:03.173Z,9.13
2019-05-06T09:09:32.667Z,7.80
2019-05-06T09:12:02.637Z,8.27
2019-05-06T09:14:32.647Z,8.23
2019-05-06T09:17:02.843Z,7.40
2019-05-06T09:19:33.141Z,8.30
2019-05-06T09:22:02.699Z,8.23
2019-05-06T09:24:32.205Z,7.43
2019-05-06T09:27:22.490Z,7.17
2019-05-06T09:29:57.213Z,6.33
2019-05-06T09:32:35.900Z,7.23
2019-05-06T09:35:03.133Z,6.07
2019-05-06T09:37:32.681Z,5.60
2019-05-06T09:40:02.866Z,5.57
2019-05-06T09:42:32.286Z,6.37
2019-05-06T09:45:02.265Z,6.13
2019-05-06T09:47:56.423Z,5.27
2019-05-06T09:50:50.679Z,5.70
2019-05-06T09:53:30.443Z,5.13
2019-05-06T09:56:23.035Z,5.60
2019-05-06T09:58:53.032Z,5.87
2019-05-06T10:01:22.554Z,5.57
2019-05-06T10:03:52.939Z,5.40
2019-05-06T10:06:22.490Z,4.43
2019-05-06T10:08:51.736Z,4.13
2019-05-06T10:11:22.328Z,4.40
2019-05-06T10:13:52.454Z,3.60
2019-05-06T10:16:21.863Z,4.63
2019-05-06T10:18:52.416Z,3.60
2019-05-06T10:21:22.944Z,4.47
2019-05-06T10:23:52.835Z,6.03
2019-05-06T10:26:23.439Z,5.13
2019-05-06T10:29:02.461Z,4.63
2019-05-06T10:31:36.437Z,4.73
2019-05-06T10:34:13.987Z,5.10
2019-05-06T10:36:53.796Z,5.13
2019-05-06T10:39:25.907Z,5.30
2019-05-06T10:42:23.243Z,5.20
2019-05-06T10:45:03.037Z,5.40
2019-05-06T10:47:33.041Z,5.40
2019-05-06T10:50:02.368Z,4.77
2019-05-06T10:53:02.937Z,5.20
2019-05-06T10:55:32.617Z,4.27
2019-05-06T10:58:02.638Z,3.57
2019-05-06T11:00:33.175Z,5.57
2019-05-06T11:03:22.719Z,3.80
2019-05-06T11:05:53.408Z,4.07
2019-05-06T11:08:23.032Z,4.30
2019-05-06T11:10:53.512Z,5.20
2019-05-06T11:13:24.456Z,4.73
2019-05-06T11:15:55.627Z,4.70
2019-05-06T11:18:24.975Z,4.80
2019-05-06T11:20:56.192Z,4.30
2019-05-06T11:23:24.991Z,5.00
2019-05-06T11:25:54.146Z,3.63
2019-05-06T11:29:04.740Z,4.53
2019-05-06T11:31:55.890Z,4.07
2019-05-06T11:34:44.247Z,3.47
2019-05-06T11:37:43.814Z,3.47
2019-05-06T11:40:02.237Z,3.83
2019-05-06T11:42:35.549Z,3.70
2019-05-06T11:45:03.134Z,3.57
2019-05-06T11:47:32.768Z,4.33
2019-05-06T11:50:02.476Z,4.03
2019-05-06T11:52:34.683Z,3.40
2019-05-06T11:55:03.863Z,3.60
2019-05-06T11:57:33.000Z,3.47
2019-05-06T12:00:03.101Z,3.33
2019-05-06T12:02:33.050Z,2.90
2019-05-06T12:05:02.525Z,3.07
2019-05-06T12:07:33.249Z,3.10
2019-05-06T12:10:02.683Z,3.40
2019-05-06T12:12:31.872Z,3.40
2019-05-06T12:15:03.472Z,3.67
2019-05-06T12:17:32.034Z,3.13
2019-05-06T12:20:02.913Z,3.27
2019-05-06T12:22:38.022Z,3.30
2019-05-06T12:25:12.668Z,3.33
2019-05-06T12:27:44.469Z,3.00
2019-05-06T12:30:19.333Z,3.30
2019-05-06T12:33:00.170Z,3.43
2019-05-06T12:35:29.371Z,2.67
2019-05-06T12:38:05.205Z,3.70
2019-05-06T12:40:32.089Z,3.13
2019-05-06T12:43:18.791Z,3.73
2019-05-06T12:45:49.863Z,3.80
2019-05-06T12:48:22.923Z,3.63
2019-05-06T12:50:52.599Z,3.47
2019-05-06T12:53:23.173Z,3.63
2019-05-06T12:55:52.465Z,3.73
2019-05-06T12:58:23.374Z,3.33
2019-05-06T13:00:54.269Z,3.60
2019-05-06T13:03:23.625Z,3.37
2019-05-06T13:05:52.953Z,3.50
2019-05-06T13:08:27.557Z,3.83
2019-05-06T13:10:53.113Z,3.90
2019-05-06T13:13:22.595Z,3.70
2019-05-06T13:15:52.824Z,4.00
2019-05-06T13:18:23.220Z,4.20
2019-05-06T13:20:52.981Z,4.93
2019-05-06T13:23:41.241Z,3.77
2019-05-06T13:26:12.689Z,3.67
2019-05-06T13:28:44.924Z,4.10
2019-05-06T13:31:20.615Z,4.23
2019-05-06T13:34:02.997Z,4.43
2019-05-06T13:36:33.344Z,5.00
2019-05-06T13:39:14.068Z,3.57
2019-05-06T13:41:33.878Z,4.30
2019-05-06T13:44:13.966Z,2.80
2019-05-06T13:46:46.726Z,3.13
2019-05-06T13:49:42.843Z,3.70
2019-05-06T13:52:12.978Z,2.90
2019-05-06T13:54:42.478Z,3.50
2019-05-06T13:57:12.674Z,3.80
2019-05-06T13:59:44.125Z,3.33
2019-05-06T14:02:33.513Z,4.13
2019-05-06T14:05:02.962Z,3.50
2019-05-06T14:07:34.478Z,3.70
2019-05-06T14:10:03.474Z,3.90
2019-05-06T14:12:33.331Z,3.20
2019-05-06T14:15:04.322Z,3.27
2019-05-06T14:17:33.977Z,3.50
2019-05-06T14:20:03.210Z,3.07
2019-05-06T14:22:32.797Z,3.17
2019-05-06T14:25:19.547Z,3.57
2019-05-06T14:27:52.667Z,3.33
2019-05-06T14:30:39.523Z,3.97
2019-05-06T14:33:12.727Z,3.97
2019-05-06T14:35:42.990Z,4.53
2019-05-06T14:38:13.501Z,3.73
2019-05-06T14:41:07.074Z,3.67
2019-05-06T14:43:42.810Z,3.30
2019-05-06T14:46:11.952Z,3.43
2019-05-06T14:48:42.998Z,3.40
2019-05-06T14:51:12.998Z,4.20
2019-05-06T14:53:43.603Z,3.20
2019-05-06T14:56:38.295Z,3.83
2019-05-06T14:59:08.000Z,3.07
2019-05-06T15:01:38.937Z,3.63
2019-05-06T15:04:08.218Z,3.50
2019-05-06T15:06:37.633Z,3.50
2019-05-06T15:09:13.109Z,3.40
2019-05-06T15:11:43.349Z,3.83
2019-05-06T15:14:13.232Z,3.60
2019-05-06T15:16:42.582Z,5.03
2019-05-06T15:19:12.905Z,3.77
2019-05-06T15:21:42.853Z,3.40
2019-05-06T15:24:13.823Z,3.40
2019-05-06T15:26:43.302Z,3.00
2019-05-06T15:29:12.785Z,3.00
2019-05-06T15:39:08.872Z,2.87
2019-05-06T15:41:38.125Z,3.27
2019-05-06T15:44:07.499Z,3.17
2019-05-06T15:46:36.816Z,2.97
2019-05-06T15:49:05.989Z,2.70
2019-05-06T15:51:35.170Z,2.73
2019-05-06T15:54:05.733Z,2.87
2019-05-06T15:56:34.977Z,2.90
2019-05-06T15:59:04.661Z,3.20
2019-05-06T16:01:34.366Z,3.00
2019-05-06T16:04:03.542Z,2.80
2019-05-06T16:06:33.262Z,3.43
2019-05-06T16:09:03.594Z,3.90
2019-05-06T16:11:33.419Z,3.17
2019-05-06T16:14:03.049Z,4.37
2019-05-06T16:16:33.249Z,3.20
2019-05-06T16:19:04.103Z,3.00
2019-05-06T16:21:33.631Z,3.60
2019-05-06T16:24:14.166Z,4.07
2019-05-06T16:26:45.694Z,3.40
2019-05-06T16:29:14.384Z,4.03
2019-05-06T16:31:43.681Z,3.10
2019-05-06T16:34:14.725Z,2.80
2019-05-06T16:36:44.046Z,3.20
2019-05-06T16:39:13.325Z,2.97
2019-05-06T16:41:44.718Z,3.03
2019-05-06T16:44:13.855Z,3.20
2019-05-06T16:46:43.131Z,2.60
2019-05-06T16:49:14.184Z,2.90
2019-05-06T16:51:44.200Z,2.60
2019-05-06T16:54:15.216Z,3.27
2019-05-06T16:56:52.773Z,2.57
2019-05-06T16:59:23.760Z,3.00
2019-05-06T17:01:52.827Z,2.77
2019-05-06T17:04:32.863Z,3.47
2019-05-06T17:07:03.101Z,3.53
2019-05-06T17:09:33.214Z,2.47
2019-05-06T17:12:04.697Z,2.87
2019-05-06T17:14:33.641Z,2.40
2019-05-06T17:17:03.361Z,2.43
2019-05-06T17:19:33.032Z,2.90
2019-05-06T17:22:03.027Z,2.83
2019-05-06T17:24:33.074Z,3.10
2019-05-06T17:27:02.844Z,4.20
2019-05-06T17:30:06.289Z,3.57
2019-05-06T17:32:38.107Z,3.13
2019-05-06T17:35:08.199Z,2.43
2019-05-06T17:38:14.659Z,3.10
2019-05-06T17:40:44.028Z,2.57
2019-05-06T17:43:13.284Z,3.47
2019-05-06T17:46:03.977Z,2.87
2019-05-06T17:48:37.324Z,2.80
2019-05-06T17:51:14.448Z,2.80
2019-05-06T17:53:46.847Z,2.70
2019-05-06T17:56:16.151Z,2.50
2019-05-06T17:58:45.405Z,2.90
2019-05-06T18:01:17.146Z,2.80
2019-05-06T18:03:46.342Z,2.60
2019-05-06T18:06:15.624Z,3.10
2019-05-06T18:08:44.866Z,2.93
2019-05-06T18:11:14.123Z,2.90
2019-05-06T18:13:43.264Z,2.83
2019-05-06T18:16:14.391Z,2.50
2019-05-06T18:18:43.607Z,3.27
2019-05-06T18:21:12.918Z,2.67
2019-05-06T18:23:42.417Z,3.17
2019-05-06T18:26:11.685Z,3.40
2019-05-06T18:28:43.067Z,4.20
2019-05-06T18:31:12.557Z,3.93
2019-05-06T18:33:43.155Z,4.53
2019-05-06T18:36:13.043Z,3.50
2019-05-06T18:38:42.508Z,4.00
2019-05-06T18:41:12.099Z,3.90
2019-05-06T18:43:42.303Z,3.63
2019-05-06T18:46:12.318Z,3.37
2019-05-06T18:48:42.715Z,3.53
2019-05-06T18:51:12.662Z,4.37
2019-05-06T18:53:42.304Z,4.50
2019-05-06T18:56:12.644Z,5.27
2019-05-06T18:58:42.893Z,5.83
2019-05-06T19:01:13.255Z,5.83
2019-05-06T19:03:49.131Z,6.37
2019-05-06T19:06:18.364Z,6.47
2019-05-06T19:08:53.401Z,5.40
2019-05-06T19:11:22.677Z,5.47
2019-05-06T19:13:52.661Z,4.97
2019-05-06T19:16:22.372Z,7.00
2019-05-06T19:18:52.383Z,4.80
2019-05-06T19:21:24.301Z,5.13
2019-05-06T19:23:54.812Z,6.13
2019-05-06T19:26:23.744Z,6.47
2019-05-06T19:28:53.020Z,6.77
2019-05-06T19:31:22.925Z,7.10
2019-05-06T19:33:52.727Z,7.50
2019-05-06T19:36:23.471Z,6.40
2019-05-06T19:38:52.907Z,4.43
2019-05-06T19:41:22.413Z,4.50
2019-05-06T19:43:52.467Z,5.00
2019-05-06T19:46:21.670Z,4.00
2019-05-06T19:48:52.404Z,4.50
2019-05-06T19:51:22.583Z,4.03
2019-05-06T19:53:51.956Z,4.03
2019-05-06T19:56:23.186Z,3.90
2019-05-06T19:58:52.662Z,4.53
2019-05-06T20:01:22.898Z,5.47
2019-05-06T20:03:52.607Z,5.03
2019-05-06T20:06:37.618Z,5.07
2019-05-06T20:09:39.311Z,3.90
2019-05-06T20:12:13.525Z,3.77
2019-05-06T20:14:42.738Z,4.63
2019-05-06T20:17:12.894Z,7.50
2019-05-06T20:19:42.680Z,7.47
2019-05-06T20:22:12.993Z,10.37
2019-05-06T20:24:42.617Z,7.00
2019-05-06T20:27:13.311Z,5.90
2019-05-06T20:29:42.869Z,6.70
2019-05-06T20:32:12.302Z,6.67
2019-05-06T20:34:42.895Z,6.13
2019-05-06T20:37:12.880Z,6.93
2019-05-06T20:39:43.320Z,5.43
2019-05-06T20:42:12.952Z,4.97
2019-05-06T20:44:43.316Z,6.00
2019-05-06T20:47:13.235Z,5.10
2019-05-06T20:49:43.173Z,4.33
2019-05-06T20:52:12.496Z,4.43
2019-05-06T20:54:42.711Z,5.57
2019-05-06T20:57:12.417Z,5.33
2019-05-06T20:59:42.100Z,4.57
2019-05-06T21:02:12.483Z,5.00
2019-05-06T21:04:43.113Z,4.60
2019-05-06T21:07:12.596Z,6.30
2019-05-06T21:09:43.170Z,5.93
2019-05-06T21:12:12.546Z,5.70
2019-05-06T21:14:42.185Z,5.30
2019-05-06T21:17:12.374Z,5.03
2019-05-06T21:19:41.818Z,4.67
2019-05-06T21:22:13.095Z,5.17
2019-05-06T21:24:43.078Z,6.30
2019-05-06T21:27:12.514Z,4.83
2019-05-06T21:29:42.096Z,5.53
2019-05-06T21:32:11.443Z,6.53
2019-05-06T21:34:43.102Z,6.00
2019-05-06T21:37:12.247Z,5.73
2019-05-06T21:39:42.400Z,4.70
2019-05-06T21:42:12.254Z,6.13
2019-05-06T21:44:42.905Z,5.50
2019-05-06T21:47:12.084Z,5.40
2019-05-06T21:49:42.172Z,5.23
2019-05-06T21:52:13.130Z,5.90
2019-05-06T21:54:43.411Z,6.50
2019-05-06T21:57:15.805Z,8.10
2019-05-06T21:59:46.028Z,7.23
2019-05-06T22:02:16.917Z,8.07
2019-05-06T22:04:46.070Z,9.90
2019-05-06T22:07:15.316Z,10.27
2019-05-06T22:09:44.506Z,10.23
2019-05-06T22:12:13.659Z,9.97
2019-05-06T22:14:42.932Z,9.67
2019-05-06T22:17:14.161Z,8.93
2019-05-06T22:19:42.937Z,9.10
2019-05-06T22:22:14.654Z,14.53
2019-05-06T22:24:48.447Z,9.10
2019-05-06T22:27:18.537Z,12.10
2019-05-06T22:29:47.806Z,11.03
2019-05-06T22:32:17.067Z,10.17
2019-05-06T22:34:46.297Z,12.73
2019-05-06T22:37:15.517Z,12.67
2019-05-06T22:39:44.801Z,11.20
2019-05-06T22:42:13.926Z,9.23
2019-05-06T22:44:43.389Z,10.90
2019-05-06T22:47:12.515Z,7.60
2019-05-06T22:49:41.643Z,6.93
2019-05-06T22:52:12.603Z,9.37
2019-05-06T22:54:43.351Z,8.33
2019-05-06T22:57:12.626Z,9.97
2019-05-06T22:59:42.774Z,7.23
2019-05-06T23:02:19.944Z,6.40
2019-05-06T23:04:53.064Z,6.37
2019-05-06T23:07:22.566Z,7.17
2019-05-06T23:09:52.169Z,7.50
2019-05-06T23:12:23.153Z,6.73
2019-05-06T23:14:53.051Z,7.93
2019-05-06T23:17:22.141Z,9.20
2019-05-06T23:19:52.773Z,10.57
2019-05-06T23:22:22.755Z,12.10
2019-05-06T23:24:54.086Z,12.40
2019-05-06T23:27:23.364Z,19.43
2019-05-06T23:29:52.734Z,12.43
2019-05-06T23:32:22.958Z,10.90
2019-05-06T23:34:52.497Z,7.07
2019-05-06T23:37:23.006Z,5.70
2019-05-06T23:40:33.163Z,5.43
2019-05-06T23:43:37.767Z,5.87
2019-05-06T23:46:42.885Z,4.67
2019-05-06T23:49:47.632Z,5.30
2019-05-06T23:52:52.149Z,5.60
2019-05-06T23:55:56.955Z,5.30
2019-05-06T23:58:24.476Z,5.53
